Curuca, Brazil
Current Conditions -  °F | °C
As of 4:00 PM on Thursday 18 Dec 2014 (Local Time) from SBPV Reporting Station
Scattered Clouds Scattered Clouds  
Wind Chill: 90°   Ceiling: Unl
Heat Index: 96°   Visibility: 6mi
Dew Point: 72°   Wind: 6mph
Humidity: 55%   Direction: 340°NNW
Pressure: 29.65"   Gusts: NA
Location:  6.1°S, 64.28°W
Report Text: SBPV 182000Z 34005KT 9999 SCT023 FEW025TCU SCT100 32/22 Q1004
Loading
Personal Weather Stations






























Interactive Weather Map New forecast layout! Learn more

10-Day Weather Forecast

Advertisements
Track Severe Weather on mobile